createdAt,value
2023-02-11T00:01:22.838Z,101709.88
2023-02-11T00:03:50.874Z,101710.03
2023-02-11T00:06:18.693Z,101708.13
2023-02-11T00:08:47.060Z,101701.25
2023-02-11T00:11:16.722Z,101700.63
2023-02-11T00:13:45.865Z,101703.69
2023-02-11T00:16:19.511Z,101702.81
2023-02-11T00:18:47.354Z,101697.03
2023-02-11T00:21:18.144Z,101673.53
2023-02-11T00:23:46.893Z,101679.63
2023-02-11T00:26:15.729Z,101682.00
2023-02-11T00:28:44.793Z,101669.13
2023-02-11T00:31:13.387Z,101672.53
2023-02-11T00:33:41.993Z,101667.34
2023-02-11T00:36:15.096Z,101671.03
2023-02-11T00:38:47.110Z,101661.41
2023-02-11T00:41:15.982Z,101658.75
2023-02-11T00:43:44.096Z,101657.09
2023-02-11T00:46:12.204Z,101658.03
2023-02-11T00:48:40.666Z,101655.34
2023-02-11T00:51:09.143Z,101642.31
2023-02-11T00:53:37.479Z,101627.69
2023-02-11T00:56:05.472Z,101618.22
2023-02-11T00:58:34.585Z,101602.16
2023-02-11T01:01:02.492Z,101596.19
2023-02-11T01:03:30.431Z,101579.56
2023-02-11T01:05:58.108Z,101583.78
2023-02-11T01:08:26.020Z,101573.63
2023-02-11T01:11:02.121Z,101581.09
2023-02-11T01:13:32.284Z,101570.69
2023-02-11T01:16:00.079Z,101558.78
2023-02-11T01:18:28.116Z,101555.44
2023-02-11T01:20:55.815Z,101542.50
2023-02-11T01:23:24.666Z,101532.03
2023-02-11T01:25:53.455Z,101525.94
2023-02-11T01:28:24.776Z,101518.97
2023-02-11T01:30:53.916Z,101514.53
2023-02-11T01:33:22.727Z,101509.38
2023-02-11T01:35:51.064Z,101501.72
2023-02-11T01:38:25.688Z,101493.97
2023-02-11T01:41:06.226Z,101496.50
2023-02-11T01:43:44.271Z,101503.56
2023-02-11T01:46:32.715Z,101497.47
2023-02-11T01:49:11.161Z,101510.41
2023-02-11T01:51:50.734Z,101508.63
2023-02-11T01:54:40.755Z,101508.69
2023-02-11T01:57:23.212Z,101515.66
2023-02-11T01:59:57.924Z,101504.34
2023-02-11T02:02:44.139Z,101488.16
2023-02-11T02:05:15.181Z,101476.81
2023-02-11T02:08:09.774Z,101476.13
2023-02-11T02:10:41.716Z,101467.56
2023-02-11T02:13:09.611Z,101460.53
2023-02-11T02:15:41.286Z,101453.56
2023-02-11T02:18:08.862Z,101443.19
2023-02-11T02:20:51.608Z,101431.38
2023-02-11T02:23:28.715Z,101427.91
2023-02-11T02:26:20.485Z,101422.69
2023-02-11T02:28:53.916Z,101407.31
2023-02-11T02:31:47.246Z,101417.44
2023-02-11T02:34:26.739Z,101408.06
2023-02-11T02:37:19.706Z,101403.84
2023-02-11T02:39:50.336Z,101410.69
2023-02-11T02:42:20.137Z,101404.72
2023-02-11T02:47:02.623Z,101378.00
2023-02-11T02:49:30.725Z,101377.00
2023-02-11T02:52:12.535Z,101379.56
2023-02-11T02:55:07.104Z,101383.00
2023-02-11T02:58:03.247Z,101374.50
2023-02-11T03:01:00.735Z,101391.50
2023-02-11T03:03:47.024Z,101375.28
2023-02-11T03:06:34.464Z,101383.06
2023-02-11T03:09:12.356Z,101372.72
2023-02-11T03:11:40.973Z,101378.84
2023-02-11T03:14:12.863Z,101371.22
2023-02-11T03:16:41.374Z,101369.47
2023-02-11T03:19:24.165Z,101370.22
2023-02-11T03:21:53.397Z,101356.50
2023-02-11T03:24:39.976Z,101334.91
2023-02-11T03:27:20.363Z,101338.31
2023-02-11T03:29:59.387Z,101326.38
2023-02-11T03:32:29.611Z,101329.63
2023-02-11T03:35:08.722Z,101324.56
2023-02-11T03:38:00.353Z,101328.16
2023-02-11T03:40:32.613Z,101322.91
2023-02-11T03:43:31.035Z,101304.00
2023-02-11T03:46:00.793Z,101302.19
2023-02-11T03:48:42.155Z,101295.13
2023-02-11T03:51:12.522Z,101296.88
2023-02-11T03:53:43.628Z,101287.38
2023-02-11T03:56:18.853Z,101286.66
2023-02-11T03:58:47.890Z,101275.44
2023-02-11T04:01:16.450Z,101269.34
2023-02-11T04:03:44.416Z,101278.84
2023-02-11T04:06:12.075Z,101263.31
2023-02-11T04:08:39.882Z,101249.53
2023-02-11T04:11:07.439Z,101244.34
2023-02-11T04:13:35.386Z,101233.16
2023-02-11T04:16:03.048Z,101224.41
2023-02-11T04:18:32.944Z,101222.75
2023-02-11T04:21:00.707Z,101220.97
2023-02-11T04:23:29.186Z,101218.34
2023-02-11T04:25:56.958Z,101226.13
2023-02-11T04:28:24.873Z,101228.59
2023-02-11T04:30:52.475Z,101223.47
2023-02-11T04:33:20.367Z,101214.06
2023-02-11T04:35:47.952Z,101209.69
2023-02-11T04:38:15.985Z,101205.28
2023-02-11T04:40:43.625Z,101206.34
2023-02-11T04:43:11.496Z,101209.69
2023-02-11T04:45:39.134Z,101194.78
2023-02-11T04:48:07.079Z,101184.41
2023-02-11T04:50:34.617Z,101176.88
2023-02-11T04:53:02.468Z,101172.47
2023-02-11T04:55:30.040Z,101166.38
2023-02-11T04:57:57.877Z,101149.22
2023-02-11T05:00:25.465Z,101144.84
2023-02-11T05:02:53.291Z,101144.84
2023-02-11T05:05:20.963Z,101137.84
2023-02-11T05:07:48.821Z,101129.88
2023-02-11T05:10:16.516Z,101146.03
2023-02-11T05:12:44.380Z,101154.69
2023-02-11T05:15:11.932Z,101144.25
2023-02-11T05:17:39.774Z,101140.78
2023-02-11T05:20:07.960Z,101127.88
2023-02-11T05:22:35.765Z,101115.94
2023-02-11T05:25:03.363Z,101099.44
2023-02-11T05:27:31.231Z,101093.53
2023-02-11T05:29:58.752Z,101090.25
2023-02-11T05:32:26.863Z,101091.34
2023-02-11T05:34:54.392Z,101096.53
2023-02-11T05:37:22.321Z,101091.31
2023-02-11T05:39:50.062Z,101079.31
2023-02-11T05:42:17.889Z,101080.22
2023-02-11T05:44:45.482Z,101088.13
2023-02-11T05:47:13.367Z,101088.13
2023-02-11T05:49:41.159Z,101092.47
2023-02-11T05:52:08.961Z,101086.41
2023-02-11T05:54:36.658Z,101077.91
2023-02-11T05:57:04.931Z,101067.59
2023-02-11T05:59:32.548Z,101062.25
2023-02-11T06:02:00.780Z,101065.81
2023-02-11T06:04:28.287Z,101063.28
2023-02-11T06:06:56.714Z,101060.75
2023-02-11T06:09:24.350Z,101056.59
2023-02-11T06:11:52.365Z,101056.56
2023-02-11T06:14:20.404Z,101054.00
2023-02-11T06:16:48.310Z,101068.66
2023-02-11T06:19:15.944Z,101064.34
2023-02-11T06:21:44.644Z,101052.28
2023-02-11T06:24:12.713Z,101059.28
2023-02-11T06:26:40.757Z,101055.00
2023-02-11T06:29:08.572Z,101029.16
2023-02-11T06:31:39.538Z,101037.03
2023-02-11T06:34:08.555Z,101034.38
2023-02-11T06:36:38.218Z,101031.84
2023-02-11T06:39:06.647Z,101021.59
2023-02-11T06:41:34.705Z,101016.38
2023-02-11T06:44:02.334Z,101010.34
2023-02-11T06:46:30.498Z,101010.34
2023-02-11T06:48:58.126Z,100995.75
2023-02-11T06:51:26.019Z,101013.88
2023-02-11T06:53:53.731Z,101013.09
2023-02-11T06:56:23.634Z,101000.97
2023-02-11T06:58:57.769Z,101005.38
2023-02-11T07:01:27.877Z,100995.94
2023-02-11T07:03:55.860Z,100999.34
2023-02-11T07:06:27.762Z,100993.38
2023-02-11T07:08:56.214Z,100983.94
2023-02-11T07:11:27.240Z,100995.16
2023-02-11T07:13:59.729Z,101000.31
2023-02-11T07:16:27.960Z,101002.00
2023-02-11T07:18:55.707Z,101003.69
2023-02-11T07:21:24.426Z,100996.81
2023-02-11T07:23:52.259Z,100988.19
2023-02-11T07:26:29.211Z,100980.41
2023-02-11T07:28:56.894Z,100976.91
2023-02-11T07:31:27.320Z,100980.34
2023-02-11T07:33:57.151Z,100994.22
2023-02-11T07:36:26.088Z,100988.94
2023-02-11T07:38:54.017Z,100994.09
2023-02-11T07:41:23.636Z,100985.56
2023-02-11T07:43:51.760Z,100983.75
2023-02-11T07:46:24.804Z,100983.78
2023-02-11T07:48:53.362Z,100971.72
2023-02-11T07:51:27.475Z,100985.47
2023-02-11T07:53:57.104Z,100969.88
2023-02-11T07:56:25.398Z,100970.78
2023-02-11T07:58:53.331Z,100971.69
2023-02-11T08:01:25.630Z,100964.69
2023-02-11T08:03:54.513Z,100967.28
2023-02-11T08:06:24.613Z,100966.38
2023-02-11T08:08:52.337Z,100973.19
2023-02-11T08:11:23.506Z,100961.91
2023-02-11T08:13:51.732Z,100962.91
2023-02-11T08:16:25.844Z,100959.44
2023-02-11T08:18:53.979Z,100952.59
2023-02-11T08:21:21.828Z,100952.53
2023-02-11T08:23:50.036Z,100966.31
2023-02-11T08:26:20.844Z,100944.69
2023-02-11T08:28:50.724Z,100950.66
2023-02-11T08:31:21.856Z,100954.94
2023-02-11T08:33:49.789Z,100942.03
2023-02-11T08:36:23.667Z,100935.97
2023-02-11T08:38:51.589Z,100932.41
2023-02-11T08:41:19.505Z,100940.25
2023-02-11T08:43:47.464Z,100938.44
2023-02-11T08:46:18.071Z,100936.63
2023-02-11T08:48:47.062Z,100929.69
2023-02-11T08:51:21.312Z,100919.38
2023-02-11T08:53:49.740Z,100912.53
2023-02-11T08:56:19.832Z,100909.13
2023-02-11T08:58:47.875Z,100904.72
2023-02-11T09:01:20.562Z,100904.03
2023-02-11T09:03:49.412Z,100886.88
2023-02-11T09:06:18.646Z,100876.59
2023-02-11T09:08:49.427Z,100880.00
2023-02-11T09:11:20.072Z,100881.78
2023-02-11T09:13:47.839Z,100879.22
2023-02-11T09:16:21.977Z,100864.66
2023-02-11T09:18:50.236Z,100860.28
2023-02-11T09:21:19.161Z,100859.50
2023-02-11T09:23:48.008Z,100861.28
2023-02-11T09:26:21.800Z,100866.38
2023-02-11T09:28:50.036Z,100867.22
2023-02-11T09:31:20.244Z,100863.88
2023-02-11T09:33:50.130Z,100869.03
2023-02-11T09:36:21.458Z,100866.44
2023-02-11T09:38:49.739Z,100874.22
2023-02-11T09:41:32.746Z,100876.84
2023-02-11T09:44:04.845Z,100876.84
2023-02-11T09:46:41.809Z,100894.91
2023-02-11T09:49:19.883Z,100884.63
2023-02-11T09:51:57.762Z,100881.97
2023-02-11T09:54:35.527Z,100891.50
2023-02-11T09:57:03.683Z,100886.28
2023-02-11T09:59:31.337Z,100876.81
2023-02-11T10:02:18.298Z,100863.88
2023-02-11T10:05:05.226Z,100857.84
2023-02-11T10:07:46.404Z,100840.66
2023-02-11T10:10:34.116Z,100838.00
2023-02-11T10:13:10.695Z,100852.69
2023-02-11T10:16:08.001Z,100849.22
2023-02-11T10:19:07.354Z,100859.66
2023-02-11T10:22:12.276Z,100858.78
2023-02-11T10:24:42.529Z,100832.88
2023-02-11T10:27:19.748Z,100832.03
2023-02-11T10:29:55.363Z,100813.91
2023-02-11T10:32:33.651Z,100818.22
2023-02-11T10:35:10.225Z,100800.94
2023-02-11T10:37:37.949Z,100797.53
2023-02-11T10:40:13.542Z,100807.88
2023-02-11T10:42:45.705Z,100793.19
2023-02-11T10:45:32.550Z,100800.19
2023-02-11T10:48:01.738Z,100807.03
2023-02-11T10:50:35.202Z,100795.84
2023-02-11T10:53:21.641Z,100785.50
2023-02-11T10:55:57.489Z,100776.00
2023-02-11T10:58:54.593Z,100768.22
2023-02-11T11:01:25.001Z,100756.19
2023-02-11T11:03:53.334Z,100752.69
2023-02-11T11:06:33.353Z,100773.34
2023-02-11T11:09:01.232Z,100762.19
2023-02-11T11:11:29.360Z,100762.22
2023-02-11T11:14:03.259Z,100766.50
2023-02-11T11:16:36.287Z,100770.00
2023-02-11T11:19:09.714Z,100772.59
2023-02-11T11:21:43.224Z,100773.47
2023-02-11T11:24:22.845Z,100798.47
2023-02-11T11:26:54.004Z,100781.16
2023-02-11T11:29:30.511Z,100803.66
2023-02-11T11:32:05.517Z,100794.16
2023-02-11T11:34:38.268Z,100807.09
2023-02-11T11:37:22.836Z,100799.28
2023-02-11T11:40:02.477Z,100786.38
2023-02-11T11:42:33.203Z,100777.72
2023-02-11T11:45:20.160Z,100785.50
2023-02-11T11:48:18.532Z,100775.19
2023-02-11T11:50:52.958Z,100771.75
2023-02-11T11:53:52.142Z,100768.28
2023-02-11T11:56:28.023Z,100751.03
2023-02-11T11:58:56.066Z,100742.38
2023-02-11T12:01:51.825Z,100734.63
2023-02-11T12:04:19.589Z,100738.09
2023-02-11T12:07:12.054Z,100735.50
2023-02-11T12:09:58.760Z,100726.91
2023-02-11T12:13:00.959Z,100752.75
2023-02-11T12:15:39.306Z,100745.00
2023-02-11T12:18:10.064Z,100727.75
2023-02-11T12:21:04.719Z,100745.84
2023-02-11T12:23:38.610Z,100738.09
2023-02-11T12:26:20.566Z,100738.09
2023-02-11T12:29:20.468Z,100742.41
2023-02-11T12:31:54.697Z,100740.69
2023-02-11T12:34:37.743Z,100741.56
2023-02-11T12:37:20.037Z,100734.66
2023-02-11T12:39:51.336Z,100735.50
2023-02-11T12:43:10.579Z,100736.38
2023-02-11T12:46:02.687Z,100749.31
2023-02-11T12:49:11.620Z,100727.75
2023-02-11T12:51:55.733Z,100730.34
2023-02-11T12:55:02.019Z,100718.28
2023-02-11T12:57:33.313Z,100714.81
2023-02-11T13:00:18.960Z,100699.28
2023-02-11T13:02:59.635Z,100699.28
2023-02-11T13:05:33.180Z,100709.59
2023-02-11T13:08:24.972Z,100713.97
2023-02-11T13:11:04.493Z,100711.38
2023-02-11T13:13:54.936Z,100713.09
2023-02-11T13:16:35.157Z,100707.91
2023-02-11T13:19:11.288Z,100711.38
2023-02-11T13:22:07.125Z,100702.69
2023-02-11T13:24:53.349Z,100693.25
2023-02-11T13:27:45.852Z,100702.69
2023-02-11T13:30:29.343Z,100699.25
2023-02-11T13:32:57.403Z,100706.19
2023-02-11T13:35:32.918Z,100704.44
2023-02-11T13:38:03.566Z,100701.84
2023-02-11T13:40:38.191Z,100697.53
2023-02-11T13:43:19.971Z,100699.22
2023-02-11T13:45:50.120Z,100694.06
2023-02-11T13:48:25.467Z,100700.97
2023-02-11T13:50:56.789Z,100697.50
2023-02-11T13:53:25.594Z,100694.03
2023-02-11T13:56:07.787Z,100695.78
2023-02-11T13:58:46.332Z,100695.78
2023-02-11T14:01:39.861Z,100694.03
2023-02-11T14:04:42.832Z,100700.97
2023-02-11T14:07:50.245Z,100696.66
2023-02-11T14:10:43.092Z,100702.69
2023-02-11T14:13:26.368Z,100693.19
2023-02-11T14:16:08.017Z,100712.19
2023-02-11T14:18:38.752Z,100700.09
2023-02-11T14:21:13.262Z,100707.00
2023-02-11T14:23:41.881Z,100708.72
2023-02-11T14:26:21.750Z,100713.06
2023-02-11T14:29:07.065Z,100709.59
2023-02-11T14:31:49.242Z,100699.22
2023-02-11T14:34:44.555Z,100721.66
2023-02-11T14:37:12.353Z,100719.94
2023-02-11T14:40:17.843Z,100729.44
2023-02-11T14:42:45.981Z,100739.81
2023-02-11T14:45:20.162Z,100735.50
2023-02-11T14:48:04.678Z,100735.50
2023-02-11T14:50:48.598Z,100740.66
2023-02-11T14:53:23.742Z,100737.22
2023-02-11T14:55:53.496Z,100729.44
2023-02-11T14:58:31.651Z,100744.13
2023-02-11T15:01:02.179Z,100730.31
2023-02-11T15:03:37.396Z,100731.09
2023-02-11T15:06:15.001Z,100736.34
2023-02-11T15:08:51.343Z,100703.53
2023-02-11T15:11:22.342Z,100729.41
2023-02-11T15:13:52.557Z,100725.09
2023-02-11T15:16:26.336Z,100732.88
2023-02-11T15:19:04.381Z,100728.56
2023-02-11T15:21:34.542Z,100752.75
2023-02-11T15:24:21.467Z,100754.47
2023-02-11T15:27:18.492Z,100750.16
2023-02-11T15:29:49.466Z,100759.66
2023-02-11T15:32:21.568Z,100763.09
2023-02-11T15:34:52.110Z,100765.69
2023-02-11T15:37:29.864Z,100780.38
2023-02-11T15:40:12.108Z,100782.13
2023-02-11T15:42:52.066Z,100776.94
2023-02-11T15:45:20.602Z,100780.38
2023-02-11T15:47:52.183Z,100781.25
2023-02-11T15:50:22.833Z,100769.16
2023-02-11T15:52:51.920Z,100782.13
2023-02-11T15:55:20.597Z,100773.47
2023-02-11T15:58:03.514Z,100782.97
2023-02-11T16:00:36.575Z,100781.22
2023-02-11T16:03:04.677Z,100778.59
2023-02-11T16:05:38.007Z,100778.63
2023-02-11T16:08:24.301Z,100783.81
2023-02-11T16:10:58.744Z,100789.03
2023-02-11T16:13:28.424Z,100793.28
2023-02-11T16:16:04.756Z,100796.75
2023-02-11T16:18:52.012Z,100801.06
2023-02-11T16:21:41.188Z,100803.66
2023-02-11T16:24:18.555Z,100807.13
2023-02-11T16:26:52.794Z,100807.09
2023-02-11T16:29:24.410Z,100807.97
2023-02-11T16:31:54.042Z,100820.06
2023-02-11T16:34:24.321Z,100809.72
2023-02-11T16:36:53.168Z,100810.56
2023-02-11T16:39:22.537Z,100824.38
2023-02-11T16:41:51.861Z,100828.69
2023-02-11T16:44:19.970Z,100823.53
2023-02-11T16:46:48.231Z,100826.97
2023-02-11T16:49:29.939Z,100826.97
2023-02-11T16:52:01.846Z,100835.63
2023-02-11T16:54:30.562Z,100848.56
2023-02-11T16:56:59.045Z,100848.56
2023-02-11T16:59:26.605Z,100850.25
2023-02-11T17:01:55.627Z,100851.09
2023-02-11T17:04:30.196Z,100844.25
2023-02-11T17:06:58.750Z,100845.09
2023-02-11T17:09:30.517Z,100848.56
2023-02-11T17:11:58.936Z,100852.81
2023-02-11T17:14:26.784Z,100864.94
2023-02-11T17:16:54.660Z,100877.00
2023-02-11T17:19:22.501Z,100880.47
2023-02-11T17:21:52.281Z,100886.59
2023-02-11T17:24:21.279Z,100885.66
2023-02-11T17:26:49.907Z,100892.56
2023-02-11T17:29:20.438Z,100889.09
2023-02-11T17:31:49.203Z,100892.56
2023-02-11T17:34:18.457Z,100899.47
2023-02-11T17:36:46.542Z,100901.22
2023-02-11T17:39:14.657Z,100914.19
2023-02-11T17:41:42.648Z,100906.41
2023-02-11T17:44:12.539Z,100923.69
2023-02-11T17:46:40.644Z,100915.03
2023-02-11T17:49:08.142Z,100916.75
2023-02-11T17:51:38.083Z,100927.16
2023-02-11T17:54:13.179Z,100937.53
2023-02-11T17:56:41.871Z,100928.00
2023-02-11T17:59:11.793Z,100933.19
2023-02-11T18:01:41.864Z,100942.66
2023-02-11T18:04:15.487Z,100940.91
2023-02-11T18:06:43.894Z,100947.88
2023-02-11T18:09:12.349Z,100940.06
2023-02-11T18:11:41.334Z,100938.31
2023-02-11T18:14:11.134Z,100940.03
2023-02-11T18:16:40.401Z,100946.97
2023-02-11T18:19:08.164Z,100941.78
2023-02-11T18:21:36.411Z,100944.38
2023-02-11T18:24:06.995Z,100945.28
2023-02-11T18:26:36.009Z,100944.38
2023-02-11T18:29:06.201Z,100962.56
2023-02-11T18:31:37.982Z,100964.31
2023-02-11T18:34:07.656Z,100965.19
2023-02-11T18:36:35.910Z,100963.44
2023-02-11T18:39:05.070Z,100957.34
2023-02-11T18:41:33.266Z,100965.13
2023-02-11T18:44:03.029Z,100968.59
2023-02-11T18:46:31.450Z,100970.28
2023-02-11T18:48:59.038Z,100973.78
2023-02-11T18:51:27.507Z,100980.69
2023-02-11T18:53:55.110Z,100994.59
2023-02-11T18:56:25.138Z,100991.09
2023-02-11T18:58:52.986Z,101002.31
2023-02-11T19:01:29.844Z,101014.44
2023-02-11T19:03:59.323Z,101011.84
2023-02-11T19:06:29.443Z,101020.50
2023-02-11T19:09:00.036Z,101024.00
2023-02-11T19:11:49.073Z,101020.50
2023-02-11T19:14:35.622Z,101025.69
2023-02-11T19:17:06.722Z,101024.81
2023-02-11T19:19:36.537Z,101033.47
2023-02-11T19:22:10.559Z,101039.53
2023-02-11T19:24:38.689Z,101046.44
2023-02-11T19:27:06.813Z,101043.03
2023-02-11T19:29:35.300Z,101039.53
2023-02-11T19:32:05.856Z,101048.19
2023-02-11T19:34:33.845Z,101057.72
2023-02-11T19:37:01.819Z,101043.03
2023-02-11T19:39:29.438Z,101055.09
2023-02-11T19:41:57.314Z,101058.56
2023-02-11T19:44:24.928Z,101064.66
2023-02-11T19:46:53.398Z,101074.16
2023-02-11T19:49:25.888Z,101070.69
2023-02-11T19:51:57.400Z,101084.53
2023-02-11T19:54:26.486Z,101082.81
2023-02-11T19:56:54.809Z,101090.56
2023-02-11T19:59:22.865Z,101091.44
2023-02-11T20:01:53.042Z,101097.50
2023-02-11T20:04:20.651Z,101112.22
2023-02-11T20:06:49.605Z,101115.66
2023-02-11T20:09:17.312Z,101113.94
2023-02-11T20:11:45.492Z,101120.00
2023-02-11T20:14:15.244Z,101133.84
2023-02-11T20:16:49.198Z,101142.47
2023-02-11T20:19:20.276Z,101145.94
2023-02-11T20:21:51.124Z,101149.38
2023-02-11T20:24:19.883Z,101158.91
2023-02-11T20:26:48.622Z,101152.88
2023-02-11T20:29:18.418Z,101157.19
2023-02-11T20:31:46.701Z,101159.78
2023-02-11T20:34:17.002Z,101165.84
2023-02-11T20:36:51.700Z,101171.03
2023-02-11T20:39:22.225Z,101184.03
2023-02-11T20:41:51.239Z,101190.06
2023-02-11T20:44:19.343Z,101184.00
2023-02-11T20:46:47.516Z,101190.91
2023-02-11T20:49:18.915Z,101192.66
2023-02-11T20:51:47.925Z,101209.09
2023-02-11T20:54:18.247Z,101204.75
2023-02-11T20:56:48.187Z,101222.91
2023-02-11T20:59:16.858Z,101235.03
2023-02-11T21:01:48.346Z,101230.69
2023-02-11T21:04:21.576Z,101232.44
2023-02-11T21:06:52.308Z,101240.22
2023-02-11T21:09:25.615Z,101248.88
2023-02-11T21:11:54.354Z,101255.81
2023-02-11T21:14:23.437Z,101266.19
2023-02-11T21:16:52.519Z,101276.56
2023-02-11T21:19:21.275Z,101286.94
2023-02-11T21:21:49.473Z,101284.31
2023-02-11T21:24:17.267Z,101286.00
2023-02-11T21:29:05.393Z,101292.94
2023-02-11T21:31:34.604Z,101292.06
2023-02-11T21:34:02.461Z,101295.47
2023-02-11T21:36:31.108Z,101313.56
2023-02-11T21:39:00.133Z,101316.19
2023-02-11T21:41:28.989Z,101319.69
2023-02-11T21:43:57.420Z,101330.91
2023-02-11T21:46:25.402Z,101335.19
2023-02-11T21:48:53.335Z,101343.81
2023-02-11T21:51:24.983Z,101351.50
2023-02-11T21:54:01.189Z,101363.56
2023-02-11T21:56:30.983Z,101370.44
2023-02-11T21:58:59.802Z,101377.38
2023-02-11T22:01:35.249Z,101388.50
2023-02-11T22:04:03.006Z,101378.16
2023-02-11T22:06:33.975Z,101373.88
2023-02-11T22:09:10.771Z,101379.81
2023-02-11T22:11:38.995Z,101388.34
2023-02-11T22:14:06.972Z,101401.22
2023-02-11T22:16:35.159Z,101415.75
2023-02-11T22:19:02.889Z,101418.97
2023-02-11T22:21:30.896Z,101427.47
2023-02-11T22:23:58.809Z,101435.16
2023-02-11T22:26:28.402Z,101436.09
2023-02-11T22:28:56.684Z,101443.72
2023-02-11T22:31:28.758Z,101458.38
2023-02-11T22:33:57.225Z,101458.34
2023-02-11T22:36:26.725Z,101471.16
2023-02-11T22:38:54.892Z,101478.06
2023-02-11T22:41:23.407Z,101490.91
2023-02-11T22:43:51.174Z,101488.28
2023-02-11T22:46:19.992Z,101506.25
2023-02-11T22:48:48.672Z,101506.06
2023-02-11T22:51:25.248Z,101515.56
2023-02-11T22:53:55.400Z,101522.22
2023-02-11T22:56:24.434Z,101516.19
2023-02-11T22:58:53.701Z,101531.72
2023-02-11T23:01:21.706Z,101534.28
2023-02-11T23:03:49.883Z,101542.81
2023-02-11T23:06:18.197Z,101545.22
2023-02-11T23:08:46.205Z,101558.13
2023-02-11T23:11:16.935Z,101552.03
2023-02-11T23:13:46.054Z,101557.25
2023-02-11T23:16:17.833Z,101557.13
2023-02-11T23:18:47.596Z,101565.78
2023-02-11T23:21:26.721Z,101566.72
2023-02-11T23:23:56.761Z,101575.25
2023-02-11T23:26:25.298Z,101575.38
2023-02-11T23:28:53.317Z,101572.69
2023-02-11T23:31:37.453Z,101584.47
2023-02-11T23:34:05.619Z,101582.03
2023-02-11T23:36:33.534Z,101594.69
2023-02-11T23:39:01.316Z,101591.25
2023-02-11T23:41:29.309Z,101598.78
2023-02-11T23:43:58.669Z,101605.72
2023-02-11T23:46:27.740Z,101603.78
2023-02-11T23:48:55.468Z,101614.22
2023-02-11T23:51:24.413Z,101626.81
2023-02-11T23:53:54.128Z,101632.00
2023-02-11T23:56:25.000Z,101645.91
2023-02-11T23:58:54.966Z,101655.41
